createdAt,value
2023-12-31T00:01:45.478Z,78.58
2023-12-31T00:04:12.153Z,78.97
2023-12-31T00:06:38.696Z,80.29
2023-12-31T00:09:05.193Z,79.58
2023-12-31T00:11:31.693Z,78.87
2023-12-31T00:13:58.189Z,78.44
2023-12-31T00:16:24.677Z,78.27
2023-12-31T00:18:51.296Z,78.17
2023-12-31T00:21:17.800Z,78.54
2023-12-31T00:23:45.836Z,78.92
2023-12-31T00:26:12.957Z,78.07
2023-12-31T00:28:39.436Z,77.92
2023-12-31T00:31:05.926Z,78.11
2023-12-31T00:33:33.641Z,78.24
2023-12-31T00:36:01.869Z,78.67
2023-12-31T00:38:28.370Z,78.97
2023-12-31T00:40:54.911Z,79.63
2023-12-31T00:43:21.397Z,78.70
2023-12-31T00:45:47.918Z,78.97
2023-12-31T00:48:14.434Z,79.03
2023-12-31T00:50:41.134Z,78.63
2023-12-31T00:53:07.619Z,78.85
2023-12-31T00:55:39.199Z,78.69
2023-12-31T00:58:06.555Z,79.34
2023-12-31T01:00:33.048Z,79.38
2023-12-31T01:02:59.553Z,79.40
2023-12-31T01:05:26.423Z,79.05
2023-12-31T01:07:52.972Z,78.88
2023-12-31T01:10:19.487Z,79.22
2023-12-31T01:12:46.000Z,80.09
2023-12-31T01:15:12.468Z,79.00
2023-12-31T01:17:39.019Z,78.67
2023-12-31T01:20:06.290Z,79.27
2023-12-31T01:22:32.805Z,78.97
2023-12-31T01:24:59.277Z,78.35
2023-12-31T01:27:25.739Z,78.61
2023-12-31T01:29:52.271Z,79.30
2023-12-31T01:32:18.742Z,79.22
2023-12-31T01:34:45.280Z,79.22
2023-12-31T01:37:11.817Z,78.64
2023-12-31T01:39:38.518Z,79.56
2023-12-31T01:42:05.096Z,79.42
2023-12-31T01:44:31.633Z,79.10
2023-12-31T01:46:58.813Z,79.07
2023-12-31T01:49:25.357Z,78.42
2023-12-31T01:51:52.005Z,78.61
2023-12-31T01:54:19.471Z,78.53
2023-12-31T01:56:48.218Z,78.99
2023-12-31T01:59:15.492Z,79.10
2023-12-31T02:01:42.189Z,78.49
2023-12-31T02:04:08.948Z,78.73
2023-12-31T02:06:35.960Z,79.38
2023-12-31T02:09:02.585Z,78.68
2023-12-31T02:11:29.084Z,79.53
2023-12-31T02:13:55.556Z,79.44
2023-12-31T02:16:22.703Z,79.72
2023-12-31T02:18:49.449Z,79.12
2023-12-31T02:21:16.079Z,78.75
2023-12-31T02:23:43.179Z,78.96
2023-12-31T02:26:11.843Z,79.02
2023-12-31T02:28:39.071Z,79.82
2023-12-31T02:31:06.193Z,79.51
2023-12-31T02:33:33.650Z,79.80
2023-12-31T02:36:00.368Z,79.58
2023-12-31T02:38:26.931Z,79.23
2023-12-31T02:40:53.518Z,79.55
2023-12-31T02:43:20.124Z,78.95
2023-12-31T02:45:46.671Z,78.94
2023-12-31T02:48:13.337Z,78.22
2023-12-31T02:50:39.846Z,78.75
2023-12-31T02:53:06.775Z,79.94
2023-12-31T02:55:33.294Z,79.07
2023-12-31T02:57:59.763Z,79.15
2023-12-31T03:00:26.273Z,78.68
2023-12-31T03:02:52.808Z,78.98
2023-12-31T03:05:19.394Z,78.01
2023-12-31T03:07:46.095Z,78.54
2023-12-31T03:10:13.109Z,79.00
2023-12-31T03:12:39.621Z,79.33
2023-12-31T03:15:06.712Z,79.41
2023-12-31T03:17:33.284Z,79.23
2023-12-31T03:19:59.907Z,79.67
2023-12-31T03:22:37.527Z,79.12
2023-12-31T03:25:08.472Z,79.30
2023-12-31T03:27:35.011Z,79.00
2023-12-31T03:30:01.485Z,78.32
2023-12-31T03:32:28.167Z,79.38
2023-12-31T03:34:55.043Z,78.66
2023-12-31T03:37:21.671Z,79.25
2023-12-31T03:39:48.261Z,78.83
2023-12-31T03:42:14.702Z,79.43
2023-12-31T03:44:41.167Z,79.08
2023-12-31T03:47:08.207Z,79.08
2023-12-31T03:49:34.739Z,79.31
2023-12-31T03:52:01.344Z,78.96
2023-12-31T03:54:27.860Z,79.06
2023-12-31T03:56:54.380Z,79.53
2023-12-31T03:59:20.864Z,79.00
2023-12-31T04:01:47.375Z,78.34
2023-12-31T04:04:16.040Z,77.67
2023-12-31T04:06:43.876Z,77.43
2023-12-31T04:09:12.281Z,77.03
2023-12-31T04:11:39.070Z,77.34
2023-12-31T04:14:05.545Z,77.18
2023-12-31T04:16:32.061Z,77.87
2023-12-31T04:18:58.672Z,77.22
2023-12-31T04:21:25.192Z,77.95
2023-12-31T04:23:51.823Z,77.59
2023-12-31T04:26:18.309Z,78.35
2023-12-31T04:28:44.802Z,78.17
2023-12-31T04:31:11.331Z,78.33
2023-12-31T04:33:37.865Z,78.22
2023-12-31T04:36:05.289Z,78.59
2023-12-31T04:38:32.828Z,78.54
2023-12-31T04:40:59.605Z,78.71
2023-12-31T04:43:26.116Z,79.77
2023-12-31T04:45:52.634Z,79.60
2023-12-31T04:48:19.115Z,80.01
2023-12-31T04:50:45.573Z,79.39
2023-12-31T04:53:12.039Z,79.01
2023-12-31T04:55:38.570Z,79.45
2023-12-31T04:58:05.268Z,79.94
2023-12-31T05:00:31.738Z,80.14
2023-12-31T05:02:58.190Z,81.36
2023-12-31T05:05:25.128Z,80.99
2023-12-31T05:07:51.668Z,81.62
2023-12-31T05:10:18.258Z,81.16
2023-12-31T05:12:44.800Z,81.53
2023-12-31T05:15:11.347Z,81.51
2023-12-31T05:17:38.034Z,81.26
2023-12-31T05:20:04.928Z,81.32
2023-12-31T05:22:31.452Z,80.94
2023-12-31T05:24:57.925Z,82.00
2023-12-31T05:27:24.434Z,82.03
2023-12-31T05:29:50.937Z,81.40
2023-12-31T05:32:17.396Z,82.24
2023-12-31T05:34:43.960Z,81.94
2023-12-31T05:37:10.503Z,82.38
2023-12-31T05:39:37.034Z,82.93
2023-12-31T05:42:03.581Z,82.13
2023-12-31T05:44:30.082Z,82.30
2023-12-31T05:46:56.703Z,82.31
2023-12-31T05:49:23.286Z,82.94
2023-12-31T05:51:49.860Z,82.72
2023-12-31T05:54:16.309Z,83.16
2023-12-31T05:56:42.791Z,83.12
2023-12-31T05:59:09.274Z,83.09
2023-12-31T06:01:35.769Z,82.96
2023-12-31T06:04:02.312Z,83.11
2023-12-31T06:06:28.867Z,82.67
2023-12-31T06:08:55.413Z,81.82
2023-12-31T06:11:21.881Z,82.48
2023-12-31T06:13:48.398Z,82.90
2023-12-31T06:16:15.324Z,83.06
2023-12-31T06:18:41.863Z,84.60
2023-12-31T06:21:08.908Z,84.59
2023-12-31T06:23:35.500Z,84.54
2023-12-31T06:26:01.961Z,84.00
2023-12-31T06:28:28.494Z,83.77
2023-12-31T06:30:55.002Z,84.14
2023-12-31T06:33:21.611Z,82.94
2023-12-31T06:35:48.128Z,83.04
2023-12-31T06:38:14.668Z,83.31
2023-12-31T06:40:41.201Z,83.54
2023-12-31T06:43:07.804Z,84.40
2023-12-31T06:45:36.991Z,83.42
2023-12-31T06:48:05.271Z,83.29
2023-12-31T06:50:31.910Z,83.93
2023-12-31T06:52:58.429Z,83.21
2023-12-31T06:55:24.998Z,82.88
2023-12-31T06:57:51.502Z,84.19
2023-12-31T07:00:18.800Z,84.29
2023-12-31T07:02:45.401Z,83.99
2023-12-31T07:05:11.939Z,83.76
2023-12-31T07:07:38.864Z,84.16
2023-12-31T07:10:05.966Z,83.96
2023-12-31T07:12:32.481Z,83.51
2023-12-31T07:14:58.983Z,84.33
2023-12-31T07:17:30.069Z,84.61
2023-12-31T07:19:57.569Z,85.02
2023-12-31T07:22:24.160Z,84.53
2023-12-31T07:24:50.636Z,84.64
2023-12-31T07:27:17.239Z,84.16
2023-12-31T07:29:43.757Z,83.98
2023-12-31T07:32:10.399Z,84.32
2023-12-31T07:34:37.016Z,84.09
2023-12-31T07:37:03.674Z,84.08
2023-12-31T07:39:30.183Z,84.53
2023-12-31T07:41:56.677Z,84.22
2023-12-31T07:44:23.234Z,84.17
2023-12-31T07:46:49.808Z,84.32
2023-12-31T07:49:16.372Z,84.31
2023-12-31T07:51:42.923Z,84.15
2023-12-31T07:54:09.445Z,83.61
2023-12-31T07:56:35.936Z,84.11
2023-12-31T07:59:03.403Z,84.57
2023-12-31T08:01:30.017Z,83.95
2023-12-31T08:03:56.590Z,83.72
2023-12-31T08:06:23.266Z,83.57
2023-12-31T08:08:50.173Z,82.36
2023-12-31T08:11:16.788Z,82.19
2023-12-31T08:13:43.297Z,83.78
2023-12-31T08:16:09.827Z,83.48
2023-12-31T08:18:36.334Z,83.06
2023-12-31T08:21:03.088Z,82.82
2023-12-31T08:23:30.870Z,83.89
2023-12-31T08:25:57.978Z,83.62
2023-12-31T08:28:24.547Z,83.21
2023-12-31T08:30:51.235Z,82.91
2023-12-31T08:33:17.839Z,83.10
2023-12-31T08:35:44.971Z,82.75
2023-12-31T08:38:11.539Z,82.26
2023-12-31T08:40:38.136Z,82.74
2023-12-31T08:43:05.053Z,82.88
2023-12-31T08:45:33.746Z,82.92
2023-12-31T08:48:00.469Z,82.84
2023-12-31T08:50:27.155Z,82.49
2023-12-31T08:52:53.671Z,82.16
2023-12-31T08:55:20.276Z,82.07
2023-12-31T08:57:50.962Z,82.61
2023-12-31T09:00:20.930Z,82.23
2023-12-31T09:02:48.339Z,82.13
2023-12-31T09:05:15.122Z,81.49
2023-12-31T09:07:41.891Z,80.94
2023-12-31T09:10:09.051Z,80.83
2023-12-31T09:12:35.560Z,80.92
2023-12-31T09:15:02.497Z,81.27
2023-12-31T09:17:29.015Z,80.76
2023-12-31T09:19:58.630Z,80.28
2023-12-31T09:22:26.172Z,80.01
2023-12-31T09:24:54.007Z,80.34
2023-12-31T09:27:20.568Z,80.32
2023-12-31T09:29:47.630Z,80.53
2023-12-31T09:32:14.452Z,80.71
2023-12-31T09:34:41.281Z,80.92
2023-12-31T09:37:08.781Z,79.58
2023-12-31T09:39:35.405Z,79.73
2023-12-31T09:42:10.789Z,79.80
2023-12-31T09:44:37.283Z,80.35
2023-12-31T09:47:11.312Z,79.90
2023-12-31T09:49:40.972Z,79.84
2023-12-31T09:52:09.942Z,79.54
2023-12-31T09:54:40.530Z,79.39
2023-12-31T09:57:07.424Z,78.99
2023-12-31T09:59:34.601Z,78.77
2023-12-31T10:02:04.455Z,78.87
2023-12-31T10:04:31.966Z,79.04
2023-12-31T10:06:59.222Z,78.33
2023-12-31T10:09:33.641Z,78.66
2023-12-31T10:12:02.304Z,78.08
2023-12-31T10:14:29.415Z,77.89
2023-12-31T10:16:56.017Z,77.40
2023-12-31T10:19:22.650Z,77.47
2023-12-31T10:21:49.191Z,77.66
2023-12-31T10:24:15.768Z,77.31
2023-12-31T10:26:42.537Z,76.98
2023-12-31T10:29:09.699Z,76.41
2023-12-31T10:31:36.237Z,76.62
2023-12-31T10:34:18.651Z,76.69
2023-12-31T10:36:46.746Z,76.26
2023-12-31T10:39:29.850Z,76.05
2023-12-31T10:41:59.913Z,75.55
2023-12-31T10:44:27.219Z,75.35
2023-12-31T10:46:54.338Z,75.84
2023-12-31T10:49:23.419Z,75.14
2023-12-31T10:51:53.317Z,75.77
2023-12-31T10:54:55.759Z,75.48
2023-12-31T10:57:22.966Z,75.74
2023-12-31T10:59:50.363Z,74.94
2023-12-31T11:02:18.625Z,75.21
2023-12-31T11:04:49.112Z,75.57
2023-12-31T11:07:16.855Z,75.12
2023-12-31T11:09:44.616Z,75.61
2023-12-31T11:12:11.964Z,75.47
2023-12-31T11:14:42.311Z,76.05
2023-12-31T11:17:27.594Z,75.47
2023-12-31T11:20:31.292Z,74.62
2023-12-31T11:23:16.428Z,75.34
2023-12-31T11:25:45.858Z,75.67
2023-12-31T11:28:12.588Z,77.28
2023-12-31T11:31:03.993Z,77.45
2023-12-31T11:33:34.642Z,76.47
2023-12-31T11:36:12.725Z,76.81
2023-12-31T11:38:57.784Z,77.25
2023-12-31T11:41:32.045Z,76.93
2023-12-31T11:43:58.920Z,76.56
2023-12-31T11:46:52.351Z,76.70
2023-12-31T11:49:18.992Z,76.21
2023-12-31T11:51:59.666Z,75.18
2023-12-31T11:54:36.809Z,75.74
2023-12-31T11:57:05.385Z,75.30
2023-12-31T11:59:35.571Z,75.49
2023-12-31T12:02:03.703Z,74.87
2023-12-31T12:04:30.940Z,75.99
2023-12-31T12:06:57.540Z,75.09
2023-12-31T12:09:28.691Z,75.36
2023-12-31T12:12:07.213Z,74.90
2023-12-31T12:14:34.806Z,75.14
2023-12-31T12:17:02.098Z,75.98
2023-12-31T12:19:28.725Z,75.57
2023-12-31T12:21:55.772Z,75.34
2023-12-31T12:24:24.868Z,75.31
2023-12-31T12:26:52.063Z,75.29
2023-12-31T12:29:18.628Z,75.95
2023-12-31T12:31:47.630Z,75.40
2023-12-31T12:34:19.201Z,76.34
2023-12-31T12:36:47.986Z,75.68
2023-12-31T12:39:19.277Z,75.12
2023-12-31T12:41:49.268Z,74.93
2023-12-31T12:44:17.662Z,73.76
2023-12-31T12:46:45.768Z,73.84
2023-12-31T12:49:13.568Z,72.90
2023-12-31T12:51:41.468Z,72.59
2023-12-31T12:54:08.951Z,72.00
2023-12-31T12:56:35.702Z,72.72
2023-12-31T12:59:04.296Z,73.27
2023-12-31T13:01:31.976Z,74.80
2023-12-31T13:03:58.622Z,74.46
2023-12-31T13:06:25.410Z,74.70
2023-12-31T13:08:51.908Z,74.71
2023-12-31T13:11:18.732Z,74.07
2023-12-31T13:13:46.418Z,73.16
2023-12-31T13:16:18.871Z,73.69
2023-12-31T13:18:50.148Z,72.79
2023-12-31T13:21:17.022Z,72.56
2023-12-31T13:23:44.201Z,73.54
2023-12-31T13:26:10.725Z,73.42
2023-12-31T13:28:37.238Z,72.68
2023-12-31T13:31:04.217Z,72.49
2023-12-31T13:33:32.192Z,72.53
2023-12-31T13:35:58.885Z,73.19
2023-12-31T13:38:25.725Z,72.91
2023-12-31T13:40:52.822Z,73.01
2023-12-31T13:43:19.791Z,72.36
2023-12-31T13:45:46.451Z,73.20
2023-12-31T13:48:15.096Z,73.39
2023-12-31T13:50:42.025Z,73.77
2023-12-31T13:53:10.728Z,74.25
2023-12-31T13:55:37.434Z,74.56
2023-12-31T13:58:04.135Z,74.19
2023-12-31T14:00:30.605Z,74.09
2023-12-31T14:03:03.768Z,74.68
2023-12-31T14:05:35.939Z,75.04
2023-12-31T14:08:03.165Z,75.57
2023-12-31T14:10:30.874Z,75.35
2023-12-31T14:12:57.720Z,75.45
2023-12-31T14:15:24.296Z,75.89
2023-12-31T14:17:51.224Z,74.43
2023-12-31T14:20:18.489Z,75.17
2023-12-31T14:22:45.308Z,75.14
2023-12-31T14:25:11.902Z,74.52
2023-12-31T14:27:38.560Z,75.12
2023-12-31T14:30:07.721Z,74.66
2023-12-31T14:32:35.030Z,75.44
2023-12-31T14:35:02.316Z,74.75
2023-12-31T14:37:29.322Z,75.13
2023-12-31T14:39:56.708Z,75.40
2023-12-31T14:42:23.288Z,75.03
2023-12-31T14:44:50.972Z,75.60
2023-12-31T14:47:17.556Z,76.44
2023-12-31T14:49:44.128Z,76.40
2023-12-31T14:52:11.301Z,75.55
2023-12-31T14:54:38.289Z,76.54
2023-12-31T14:57:05.967Z,77.88
2023-12-31T14:59:32.448Z,78.42
2023-12-31T15:01:59.537Z,78.33
2023-12-31T15:04:26.710Z,78.29
2023-12-31T15:06:54.264Z,78.96
2023-12-31T15:09:22.423Z,79.25
2023-12-31T15:11:49.393Z,79.62
2023-12-31T15:14:16.172Z,79.13
2023-12-31T15:16:42.727Z,79.80
2023-12-31T15:19:09.437Z,79.22
2023-12-31T15:21:36.139Z,78.52
2023-12-31T15:24:02.645Z,78.87
2023-12-31T15:26:29.117Z,79.00
2023-12-31T15:28:55.907Z,79.01
2023-12-31T15:31:22.558Z,79.26
2023-12-31T15:33:49.422Z,78.82
2023-12-31T15:36:17.135Z,79.59
2023-12-31T15:38:44.806Z,79.86
2023-12-31T15:41:12.927Z,79.34
2023-12-31T15:43:41.797Z,79.49
2023-12-31T15:46:08.488Z,80.01
2023-12-31T15:48:37.199Z,79.99
2023-12-31T15:51:05.095Z,79.93
2023-12-31T15:53:31.585Z,79.80
2023-12-31T15:55:58.118Z,79.77
2023-12-31T15:58:25.089Z,79.25
2023-12-31T16:00:51.767Z,80.01
2023-12-31T16:03:18.297Z,79.62
2023-12-31T16:05:44.824Z,79.84
2023-12-31T16:08:11.530Z,78.88
2023-12-31T16:10:38.049Z,79.66
2023-12-31T16:13:04.726Z,79.25
2023-12-31T16:15:31.262Z,78.80
2023-12-31T16:17:57.884Z,79.58
2023-12-31T16:20:24.941Z,78.40
2023-12-31T16:22:51.521Z,78.51
2023-12-31T16:25:18.140Z,78.77
2023-12-31T16:27:44.687Z,78.02
2023-12-31T16:30:11.717Z,78.25
2023-12-31T16:32:41.900Z,78.52
2023-12-31T16:35:08.884Z,77.56
2023-12-31T16:37:35.710Z,77.06
2023-12-31T16:40:02.255Z,78.23
2023-12-31T16:42:28.876Z,77.84
2023-12-31T16:44:55.358Z,77.96
2023-12-31T16:47:21.918Z,78.69
2023-12-31T16:49:48.443Z,77.13
2023-12-31T16:52:15.134Z,77.85
2023-12-31T16:54:41.814Z,78.11
2023-12-31T16:57:08.309Z,77.64
2023-12-31T16:59:34.879Z,76.63
2023-12-31T17:02:01.398Z,76.92
2023-12-31T17:04:27.954Z,76.75
2023-12-31T17:06:54.467Z,77.03
2023-12-31T17:09:21.903Z,76.19
2023-12-31T17:11:48.852Z,76.17
2023-12-31T17:14:15.929Z,76.65
2023-12-31T17:16:43.410Z,76.54
2023-12-31T17:19:10.178Z,76.72
2023-12-31T17:21:36.796Z,76.61
2023-12-31T17:24:04.393Z,76.11
2023-12-31T17:26:30.867Z,75.93
2023-12-31T17:28:57.500Z,77.95
2023-12-31T17:31:24.110Z,78.90
2023-12-31T17:33:50.649Z,80.40
2023-12-31T17:36:17.421Z,79.86
2023-12-31T17:38:44.341Z,80.11
2023-12-31T17:41:12.700Z,80.67
2023-12-31T17:43:39.574Z,80.19
2023-12-31T17:46:06.746Z,80.98
2023-12-31T17:48:33.289Z,82.53
2023-12-31T17:51:01.884Z,83.35
2023-12-31T17:53:29.821Z,82.73
2023-12-31T17:55:57.456Z,83.29
2023-12-31T17:58:26.439Z,83.87
2023-12-31T18:00:53.171Z,84.72
2023-12-31T18:03:19.824Z,84.85
2023-12-31T18:05:46.400Z,85.09
2023-12-31T18:08:13.106Z,84.96
2023-12-31T18:10:39.725Z,84.37
2023-12-31T18:13:06.244Z,84.20
2023-12-31T18:15:32.735Z,83.35
2023-12-31T18:17:59.345Z,83.97
2023-12-31T18:20:25.849Z,83.60
2023-12-31T18:22:52.338Z,83.30
2023-12-31T18:25:18.815Z,82.95
2023-12-31T18:27:45.314Z,82.40
2023-12-31T18:30:20.287Z,82.36
2023-12-31T18:32:51.078Z,81.62
2023-12-31T18:35:18.338Z,81.56
2023-12-31T18:37:44.987Z,81.76
2023-12-31T18:40:11.704Z,82.44
2023-12-31T18:42:38.184Z,80.66
2023-12-31T18:45:05.104Z,80.93
2023-12-31T18:47:31.653Z,80.78
2023-12-31T18:49:58.251Z,81.97
2023-12-31T18:52:24.925Z,80.98
2023-12-31T18:54:51.775Z,81.08
2023-12-31T18:57:19.113Z,81.42
2023-12-31T18:59:45.686Z,81.58
2023-12-31T19:02:13.606Z,80.50
2023-12-31T19:04:41.824Z,81.05
2023-12-31T19:07:08.384Z,81.34
2023-12-31T19:09:34.877Z,80.51
2023-12-31T19:12:01.391Z,80.76
2023-12-31T19:14:27.868Z,80.72
2023-12-31T19:16:54.443Z,80.70
2023-12-31T19:19:20.962Z,81.63
2023-12-31T19:21:47.904Z,80.82
2023-12-31T19:24:14.378Z,81.08
2023-12-31T19:26:40.865Z,80.11
2023-12-31T19:29:07.408Z,79.61
2023-12-31T19:31:34.016Z,80.33
2023-12-31T19:34:00.585Z,79.96
2023-12-31T19:36:27.197Z,80.43
2023-12-31T19:38:53.699Z,81.55
2023-12-31T19:41:20.269Z,81.44
2023-12-31T19:44:05.651Z,81.15
2023-12-31T19:46:33.440Z,81.56
2023-12-31T19:49:00.427Z,80.33
2023-12-31T19:51:27.017Z,81.06
2023-12-31T19:53:53.602Z,79.29
2023-12-31T19:56:20.243Z,79.31
2023-12-31T19:58:49.066Z,80.20
2023-12-31T20:01:15.710Z,79.84
2023-12-31T20:03:45.715Z,80.07
2023-12-31T20:06:13.263Z,80.88
2023-12-31T20:08:40.207Z,81.89
2023-12-31T20:11:07.583Z,82.46
2023-12-31T20:13:34.158Z,83.09
2023-12-31T20:16:00.665Z,81.86
2023-12-31T20:18:27.304Z,81.34
2023-12-31T20:20:53.861Z,81.92
2023-12-31T20:23:22.628Z,83.02
2023-12-31T20:25:50.779Z,81.78
2023-12-31T20:28:17.325Z,81.53
2023-12-31T20:30:43.900Z,81.41
2023-12-31T20:33:10.943Z,80.93
2023-12-31T20:35:38.081Z,81.20
2023-12-31T20:38:05.183Z,81.36
2023-12-31T20:40:31.828Z,81.37
2023-12-31T20:42:58.433Z,81.01
2023-12-31T20:45:27.327Z,81.12
2023-12-31T20:47:54.510Z,80.41
2023-12-31T20:50:24.561Z,80.59
2023-12-31T20:52:51.430Z,79.63
2023-12-31T20:55:18.154Z,79.62
2023-12-31T20:57:44.712Z,80.28
2023-12-31T21:00:11.714Z,79.57
2023-12-31T21:02:38.231Z,79.61
2023-12-31T21:05:05.217Z,78.67
2023-12-31T21:07:32.297Z,79.34
2023-12-31T21:09:59.114Z,79.95
2023-12-31T21:12:26.073Z,80.28
2023-12-31T21:14:52.665Z,80.58
2023-12-31T21:17:19.229Z,80.10
2023-12-31T21:19:45.773Z,79.57
2023-12-31T21:22:12.292Z,78.52
2023-12-31T21:24:38.767Z,78.99
2023-12-31T21:27:05.558Z,78.36
2023-12-31T21:29:35.589Z,78.29
2023-12-31T21:32:02.281Z,78.60
2023-12-31T21:34:30.557Z,78.81
2023-12-31T21:36:57.126Z,78.31
2023-12-31T21:39:23.616Z,78.02
2023-12-31T21:41:50.133Z,77.60
2023-12-31T21:44:16.707Z,77.47
2023-12-31T21:46:43.437Z,77.13
2023-12-31T21:49:10.082Z,77.99
2023-12-31T21:51:36.680Z,77.38
2023-12-31T21:54:03.329Z,77.33
2023-12-31T21:56:47.071Z,78.06
2023-12-31T21:59:16.554Z,77.22
2023-12-31T22:01:43.146Z,77.38
2023-12-31T22:04:09.741Z,77.00
2023-12-31T22:06:36.241Z,78.17
2023-12-31T22:09:02.797Z,77.37
2023-12-31T22:11:29.631Z,77.22
2023-12-31T22:13:56.154Z,77.41
2023-12-31T22:16:22.721Z,77.21
2023-12-31T22:18:49.352Z,77.32
2023-12-31T22:21:16.052Z,77.39
2023-12-31T22:23:42.620Z,77.42
2023-12-31T22:26:09.140Z,76.21
2023-12-31T22:28:35.659Z,77.37
2023-12-31T22:31:02.124Z,77.28
2023-12-31T22:33:28.688Z,76.93
2023-12-31T22:35:55.237Z,76.60
2023-12-31T22:38:21.805Z,76.84
2023-12-31T22:40:48.297Z,76.63
2023-12-31T22:43:14.850Z,75.79
2023-12-31T22:45:41.418Z,75.81
2023-12-31T22:48:08.370Z,75.58
2023-12-31T22:50:35.112Z,75.60
2023-12-31T22:53:01.738Z,75.90
2023-12-31T22:55:28.294Z,75.67
2023-12-31T22:57:55.820Z,76.18
2023-12-31T23:00:23.208Z,76.30
2023-12-31T23:02:50.194Z,76.05
2023-12-31T23:05:17.028Z,75.77
2023-12-31T23:07:43.615Z,76.07
2023-12-31T23:10:10.291Z,76.71
2023-12-31T23:12:36.944Z,75.09
2023-12-31T23:15:03.819Z,76.61
2023-12-31T23:17:30.374Z,76.37
2023-12-31T23:19:56.998Z,75.81
2023-12-31T23:22:23.519Z,76.72
2023-12-31T23:24:50.128Z,77.37
2023-12-31T23:27:16.605Z,76.36
2023-12-31T23:29:44.592Z,77.11
2023-12-31T23:32:12.208Z,77.27
2023-12-31T23:34:39.240Z,76.64
2023-12-31T23:37:09.416Z,76.04
2023-12-31T23:39:37.040Z,75.74
2023-12-31T23:42:04.116Z,75.70
2023-12-31T23:44:31.542Z,76.29
2023-12-31T23:46:59.451Z,74.80
2023-12-31T23:49:27.200Z,74.65
2023-12-31T23:51:54.932Z,74.84
2023-12-31T23:54:21.471Z,73.99
2023-12-31T23:56:47.946Z,74.57
2023-12-31T23:59:14.981Z,74.26
